createdAt,value
2018-07-01T00:00:11.865Z,99.90
2018-07-01T00:02:40.830Z,99.90
2018-07-01T00:05:10.258Z,99.90
2018-07-01T00:07:38.890Z,99.90
2018-07-01T00:10:08.675Z,99.90
2018-07-01T00:12:37.716Z,99.90
2018-07-01T00:15:07.003Z,99.90
2018-07-01T00:17:35.882Z,99.90
2018-07-01T00:20:05.422Z,99.90
2018-07-01T00:22:34.104Z,99.90
2018-07-01T00:25:02.676Z,99.90
2018-07-01T00:27:31.243Z,99.90
2018-07-01T00:29:59.840Z,99.90
2018-07-01T00:32:28.632Z,99.90
2018-07-01T00:34:57.225Z,99.90
2018-07-01T00:37:25.761Z,99.90
2018-07-01T00:39:54.379Z,99.90
2018-07-01T00:42:22.947Z,99.90
2018-07-01T00:44:51.497Z,99.90
2018-07-01T00:47:20.107Z,99.90
2018-07-01T00:49:48.698Z,99.90
2018-07-01T00:52:17.301Z,99.90
2018-07-01T00:54:45.813Z,99.90
2018-07-01T00:57:14.371Z,99.90
2018-07-01T00:59:42.976Z,99.90
2018-07-01T01:02:11.570Z,99.90
2018-07-01T01:04:40.132Z,99.90
2018-07-01T01:07:08.686Z,99.90
2018-07-01T01:09:37.572Z,99.90
2018-07-01T01:12:06.147Z,99.90
2018-07-01T01:14:34.738Z,99.90
2018-07-01T01:17:03.282Z,99.90
2018-07-01T01:19:31.771Z,99.90
2018-07-01T01:22:00.335Z,99.90
2018-07-01T01:24:28.891Z,99.90
2018-07-01T01:26:57.452Z,99.90
2018-07-01T01:29:25.965Z,99.90
2018-07-01T01:31:54.690Z,99.90
2018-07-01T01:34:23.249Z,99.90
2018-07-01T01:36:51.808Z,99.90
2018-07-01T01:39:24.075Z,99.90
2018-07-01T01:42:02.171Z,99.90
2018-07-01T01:44:37.328Z,99.90
2018-07-01T01:47:12.039Z,99.90
2018-07-01T01:49:47.374Z,99.90
2018-07-01T01:52:21.143Z,99.90
2018-07-01T01:54:57.753Z,99.90
2018-07-01T01:57:33.280Z,99.90
2018-07-01T02:00:12.459Z,99.90
2018-07-01T02:02:48.675Z,99.90
2018-07-01T02:05:22.612Z,99.90
2018-07-01T02:07:56.539Z,99.90
2018-07-01T02:10:25.097Z,99.90
2018-07-01T02:12:53.660Z,99.90
2018-07-01T02:15:25.802Z,99.90
2018-07-01T02:17:55.163Z,99.90
2018-07-01T02:20:26.184Z,99.90
2018-07-01T02:23:28.667Z,99.90
2018-07-01T02:25:58.233Z,99.90
2018-07-01T02:28:26.858Z,99.90
2018-07-01T02:30:55.440Z,99.90
2018-07-01T02:33:23.985Z,99.90
2018-07-01T02:35:52.532Z,99.90
2018-07-01T02:38:21.191Z,99.90
2018-07-01T02:40:49.780Z,99.90
2018-07-01T02:43:18.309Z,99.90
2018-07-01T02:45:46.820Z,99.90
2018-07-01T02:48:15.384Z,99.90
2018-07-01T02:50:43.963Z,99.90
2018-07-01T02:53:12.449Z,99.90
2018-07-01T02:55:40.999Z,99.90
2018-07-01T02:58:09.564Z,99.90
2018-07-01T03:00:38.141Z,99.90
2018-07-01T03:03:06.692Z,99.90
2018-07-01T03:05:35.687Z,99.90
2018-07-01T03:08:04.174Z,99.90
2018-07-01T03:10:32.716Z,99.90
2018-07-01T03:13:01.262Z,99.90
2018-07-01T03:15:29.799Z,99.90
2018-07-01T03:17:58.574Z,99.90
2018-07-01T03:20:27.116Z,99.90
2018-07-01T03:22:55.708Z,99.90
2018-07-01T03:25:24.235Z,99.90
2018-07-01T03:27:52.812Z,99.90
2018-07-01T03:30:21.328Z,99.90
2018-07-01T03:32:49.845Z,99.90
2018-07-01T03:35:18.484Z,99.90
2018-07-01T03:37:47.100Z,99.90
2018-07-01T03:40:16.069Z,99.90
2018-07-01T03:42:44.671Z,99.90
2018-07-01T03:45:13.225Z,99.90
2018-07-01T03:47:41.732Z,99.90
2018-07-01T03:50:10.377Z,99.90
2018-07-01T03:52:39.100Z,99.90
2018-07-01T03:55:07.643Z,99.90
2018-07-01T03:57:36.205Z,99.90
2018-07-01T04:00:06.203Z,99.90
2018-07-01T04:02:34.745Z,99.90
2018-07-01T04:05:03.901Z,99.90
2018-07-01T04:07:32.386Z,99.90
2018-07-01T04:10:00.888Z,99.90
2018-07-01T04:12:29.472Z,99.90
2018-07-01T04:14:58.148Z,99.90
2018-07-01T04:17:27.041Z,99.90
2018-07-01T04:22:23.748Z,99.90
2018-07-01T04:24:52.260Z,99.90
2018-07-01T04:27:21.173Z,99.90
2018-07-01T04:29:50.314Z,99.90
2018-07-01T04:32:18.841Z,99.90
2018-07-01T04:34:47.394Z,99.90
2018-07-01T04:37:15.965Z,99.90
2018-07-01T04:39:44.451Z,99.90
2018-07-01T04:42:13.000Z,99.90
2018-07-01T04:44:41.747Z,99.90
2018-07-01T04:47:10.292Z,99.90
2018-07-01T04:49:38.852Z,99.90
2018-07-01T04:54:35.761Z,99.90
2018-07-01T04:57:04.350Z,99.90
2018-07-01T04:59:32.931Z,99.90
2018-07-01T05:02:01.705Z,99.90
2018-07-01T05:04:30.250Z,99.90
2018-07-01T05:06:58.804Z,99.90
2018-07-01T05:09:27.400Z,99.90
2018-07-01T05:11:55.903Z,99.90
2018-07-01T05:14:25.108Z,99.90
2018-07-01T05:16:54.130Z,99.90
2018-07-01T05:19:22.801Z,99.90
2018-07-01T05:21:51.361Z,99.90
2018-07-01T05:24:19.914Z,99.90
2018-07-01T05:26:48.485Z,99.90
2018-07-01T05:29:17.116Z,99.90
2018-07-01T05:31:46.262Z,99.90
2018-07-01T05:34:15.149Z,99.90
2018-07-01T05:36:43.736Z,99.90
2018-07-01T05:39:13.265Z,99.90
2018-07-01T05:41:41.868Z,99.90
2018-07-01T05:44:10.754Z,99.90
2018-07-01T05:46:39.482Z,99.90
2018-07-01T05:49:09.027Z,99.90
2018-07-01T05:51:37.530Z,99.90
2018-07-01T05:54:06.322Z,99.90
2018-07-01T05:56:34.869Z,99.90
2018-07-01T05:59:03.395Z,99.90
2018-07-01T06:01:32.075Z,99.90
2018-07-01T06:04:00.662Z,99.90
2018-07-01T06:06:29.271Z,99.90
2018-07-01T06:08:57.838Z,99.90
2018-07-01T06:11:26.427Z,99.90
2018-07-01T06:13:55.417Z,99.90
2018-07-01T06:16:23.927Z,99.90
2018-07-01T06:18:52.432Z,99.90
2018-07-01T06:21:20.985Z,99.90
2018-07-01T06:23:49.453Z,99.90
2018-07-01T06:26:18.526Z,99.90
2018-07-01T06:28:47.042Z,99.90
2018-07-01T06:31:15.500Z,99.90
2018-07-01T06:33:43.981Z,99.90
2018-07-01T06:36:12.471Z,99.90
2018-07-01T06:38:41.576Z,99.90
2018-07-01T06:41:10.139Z,99.90
2018-07-01T06:43:38.705Z,99.90
2018-07-01T06:46:07.245Z,99.90
2018-07-01T06:48:35.848Z,99.90
2018-07-01T06:51:04.346Z,99.90
2018-07-01T06:53:32.954Z,99.90
2018-07-01T06:56:01.413Z,99.90
2018-07-01T06:58:29.900Z,99.90
2018-07-01T07:00:58.548Z,99.90
2018-07-01T07:03:27.015Z,99.90
2018-07-01T07:05:55.579Z,99.90
2018-07-01T07:08:24.067Z,99.90
2018-07-01T07:10:52.521Z,99.90
2018-07-01T07:13:20.982Z,99.90
2018-07-01T07:15:49.475Z,99.90
2018-07-01T07:18:17.949Z,99.90
2018-07-01T07:20:46.618Z,99.90
2018-07-01T07:23:15.210Z,99.90
2018-07-01T07:25:43.863Z,99.90
2018-07-01T07:28:12.458Z,99.90
2018-07-01T07:30:40.939Z,99.90
2018-07-01T07:33:09.490Z,99.90
2018-07-01T07:35:38.322Z,98.80
2018-07-01T07:38:07.007Z,97.10
2018-07-01T07:40:35.562Z,95.20
2018-07-01T07:43:04.818Z,94.70
2018-07-01T07:45:33.387Z,93.40
2018-07-01T07:48:01.976Z,94.20
2018-07-01T07:50:30.966Z,93.20
2018-07-01T07:52:59.446Z,89.80
2018-07-01T07:55:28.005Z,86.10
2018-07-01T07:57:56.485Z,84.20
2018-07-01T08:00:25.035Z,86.70
2018-07-01T08:02:53.528Z,85.50
2018-07-01T08:05:22.339Z,84.70
2018-07-01T08:07:51.498Z,85.60
2018-07-01T08:10:19.966Z,81.30
2018-07-01T08:12:48.635Z,79.60
2018-07-01T08:15:17.107Z,79.40
2018-07-01T08:17:45.650Z,77.70
2018-07-01T08:20:14.603Z,76.20
2018-07-01T08:22:43.181Z,74.70
2018-07-01T08:25:11.643Z,76.80
2018-07-01T08:27:40.211Z,77.60
2018-07-01T08:30:08.753Z,77.40
2018-07-01T08:32:37.263Z,72.00
2018-07-01T08:35:06.033Z,72.90
2018-07-01T08:37:34.497Z,73.20
2018-07-01T08:40:03.164Z,74.10
2018-07-01T08:42:35.445Z,73.80
2018-07-01T08:45:05.479Z,72.30
2018-07-01T08:47:34.567Z,70.80
2018-07-01T08:50:03.497Z,70.80
2018-07-01T08:52:32.094Z,70.30
2018-07-01T08:55:00.622Z,73.70
2018-07-01T08:57:29.563Z,71.10
2018-07-01T08:59:58.089Z,67.60
2018-07-01T09:02:26.846Z,70.10
2018-07-01T09:04:55.461Z,68.70
2018-07-01T09:07:23.967Z,65.50
2018-07-01T09:09:52.486Z,68.00
2018-07-01T09:12:21.027Z,64.70
2018-07-01T09:14:50.190Z,70.30
2018-07-01T09:17:18.906Z,65.80
2018-07-01T09:19:47.510Z,68.20
2018-07-01T09:22:15.996Z,67.40
2018-07-01T09:24:44.531Z,65.00
2018-07-01T09:27:13.072Z,66.20
2018-07-01T09:29:46.897Z,62.60
2018-07-01T09:32:16.235Z,62.70
2018-07-01T09:34:44.937Z,61.20
2018-07-01T09:37:13.457Z,61.10
2018-07-01T09:39:42.054Z,64.30
2018-07-01T09:42:10.738Z,60.20
2018-07-01T09:44:39.385Z,61.70
2018-07-01T09:49:36.842Z,60.60
2018-07-01T09:52:05.627Z,53.90
2018-07-01T09:54:34.245Z,53.80
2018-07-01T09:57:02.909Z,53.40
2018-07-01T09:59:31.627Z,53.90
2018-07-01T10:02:00.603Z,53.30
2018-07-01T10:04:29.280Z,55.10
2018-07-01T10:06:57.877Z,55.80
2018-07-01T10:09:26.579Z,55.40
2018-07-01T10:11:55.634Z,52.10
2018-07-01T10:14:24.276Z,52.80
2018-07-01T10:16:52.871Z,52.90
2018-07-01T10:19:21.506Z,57.00
2018-07-01T10:21:50.106Z,54.10
2018-07-01T10:24:18.669Z,53.70
2018-07-01T10:26:47.454Z,48.00
2018-07-01T10:29:16.685Z,51.80
2018-07-01T10:31:46.827Z,51.30
2018-07-01T10:34:15.970Z,50.40
2018-07-01T10:36:44.663Z,55.60
2018-07-01T10:39:15.807Z,54.70
2018-07-01T10:41:44.432Z,57.10
2018-07-01T10:44:13.082Z,55.20
2018-07-01T10:46:41.706Z,55.80
2018-07-01T10:49:10.623Z,54.00
2018-07-01T10:51:39.225Z,56.20
2018-07-01T10:54:07.877Z,55.50
2018-07-01T10:56:36.512Z,55.30
2018-07-01T10:59:06.041Z,52.00
2018-07-01T11:01:34.738Z,55.50
2018-07-01T11:04:03.384Z,54.60
2018-07-01T11:06:31.994Z,53.90
2018-07-01T11:09:01.117Z,54.40
2018-07-01T11:11:29.821Z,58.20
2018-07-01T11:13:58.453Z,56.00
2018-07-01T11:16:27.611Z,53.60
2018-07-01T11:18:56.466Z,51.10
2018-07-01T11:21:25.067Z,53.40
2018-07-01T11:23:53.577Z,51.00
2018-07-01T11:26:22.715Z,52.60
2018-07-01T11:28:51.169Z,56.50
2018-07-01T11:31:19.614Z,54.00
2018-07-01T11:33:48.152Z,52.10
2018-07-01T11:36:16.952Z,53.20
2018-07-01T11:38:45.450Z,52.90
2018-07-01T11:41:14.092Z,54.40
2018-07-01T11:43:42.607Z,51.20
2018-07-01T11:46:11.186Z,48.50
2018-07-01T11:48:39.679Z,49.00
2018-07-01T11:51:08.200Z,45.10
2018-07-01T11:53:36.727Z,46.90
2018-07-01T11:58:34.483Z,45.50
2018-07-01T12:01:03.101Z,47.00
2018-07-01T12:03:31.574Z,46.70
2018-07-01T12:06:00.212Z,44.20
2018-07-01T12:08:28.724Z,45.50
2018-07-01T12:10:57.404Z,44.20
2018-07-01T12:13:26.075Z,46.40
2018-07-01T12:15:54.838Z,50.40
2018-07-01T12:18:24.068Z,46.30
2018-07-01T12:20:52.593Z,44.80
2018-07-01T12:23:21.760Z,45.50
2018-07-01T12:25:50.230Z,47.00
2018-07-01T12:28:18.935Z,46.40
2018-07-01T12:30:47.439Z,47.80
2018-07-01T12:33:16.211Z,46.60
2018-07-01T12:35:44.809Z,46.00
2018-07-01T12:38:14.004Z,46.40
2018-07-01T12:40:42.729Z,48.00
2018-07-01T12:43:11.400Z,46.70
2018-07-01T12:45:40.033Z,49.00
2018-07-01T12:48:08.568Z,45.70
2018-07-01T12:50:37.151Z,48.90
2018-07-01T12:53:05.708Z,49.10
2018-07-01T12:55:34.276Z,46.30
2018-07-01T12:58:02.816Z,46.80
2018-07-01T13:00:31.499Z,47.60
2018-07-01T13:03:00.049Z,48.90
2018-07-01T13:05:28.668Z,47.30
2018-07-01T13:07:57.276Z,48.10
2018-07-01T13:10:25.812Z,48.80
2018-07-01T13:12:54.402Z,50.60
2018-07-01T13:15:22.947Z,50.50
2018-07-01T13:17:51.693Z,50.00
2018-07-01T13:20:20.321Z,52.60
2018-07-01T13:22:48.859Z,52.80
2018-07-01T13:25:17.432Z,51.90
2018-07-01T13:27:45.948Z,52.00
2018-07-01T13:30:14.503Z,51.00
2018-07-01T13:32:43.010Z,51.80
2018-07-01T13:35:11.735Z,51.90
2018-07-01T13:37:40.378Z,51.70
2018-07-01T13:40:08.972Z,53.00
2018-07-01T13:42:37.703Z,49.90
2018-07-01T13:45:07.568Z,51.20
2018-07-01T13:47:36.182Z,51.30
2018-07-01T13:52:47.783Z,51.90
2018-07-01T13:55:16.369Z,52.20
2018-07-01T13:57:46.014Z,51.40
2018-07-01T14:00:14.679Z,50.30
2018-07-01T14:02:43.336Z,48.70
2018-07-01T14:05:12.877Z,51.30
2018-07-01T14:07:41.471Z,49.40
2018-07-01T14:10:11.928Z,51.40
2018-07-01T14:12:40.847Z,50.70
2018-07-01T14:15:09.438Z,51.30
2018-07-01T14:17:38.065Z,52.70
2018-07-01T14:20:09.309Z,53.50
2018-07-01T14:22:39.275Z,53.60
2018-07-01T14:25:09.061Z,52.90
2018-07-01T14:27:38.092Z,52.80
2018-07-01T14:30:07.684Z,53.00
2018-07-01T14:32:36.506Z,53.90
2018-07-01T14:35:05.186Z,53.20
2018-07-01T14:37:33.830Z,53.40
2018-07-01T14:40:02.534Z,53.90
2018-07-01T14:42:32.557Z,52.70
2018-07-01T14:45:01.493Z,51.70
2018-07-01T14:47:30.127Z,51.40
2018-07-01T14:49:58.719Z,50.80
2018-07-01T14:52:27.373Z,51.70
2018-07-01T14:54:56.130Z,51.70
2018-07-01T14:57:24.920Z,52.00
2018-07-01T14:59:53.532Z,52.20
2018-07-01T15:02:22.117Z,52.00
2018-07-01T15:04:57.337Z,51.70
2018-07-01T15:07:26.272Z,51.30
2018-07-01T15:09:55.282Z,51.70
2018-07-01T15:12:23.914Z,52.00
2018-07-01T15:14:52.644Z,51.10
2018-07-01T15:19:49.926Z,49.20
2018-07-01T15:22:18.601Z,51.40
2018-07-01T15:24:47.564Z,50.30
2018-07-01T15:27:16.243Z,50.00
2018-07-01T15:29:44.854Z,50.90
2018-07-01T15:32:14.310Z,50.40
2018-07-01T15:34:42.999Z,49.30
2018-07-01T15:37:12.041Z,48.70
2018-07-01T15:39:40.752Z,47.80
2018-07-01T15:42:09.457Z,49.00
2018-07-01T15:44:38.007Z,50.70
2018-07-01T15:47:10.118Z,49.20
2018-07-01T15:49:40.305Z,49.20
2018-07-01T15:52:08.947Z,51.10
2018-07-01T15:54:37.543Z,51.80
2018-07-01T15:57:06.919Z,51.80
2018-07-01T15:59:35.596Z,52.20
2018-07-01T16:02:04.254Z,51.80
2018-07-01T16:04:35.007Z,51.50
2018-07-01T16:07:03.716Z,50.70
2018-07-01T16:09:32.329Z,50.00
2018-07-01T16:12:00.910Z,50.20
2018-07-01T16:14:29.903Z,50.80
2018-07-01T16:16:58.683Z,51.20
2018-07-01T16:19:27.292Z,51.20
2018-07-01T16:21:55.929Z,50.10
2018-07-01T16:24:24.495Z,49.30
2018-07-01T16:26:57.440Z,50.20
2018-07-01T16:29:26.130Z,49.90
2018-07-01T16:31:54.923Z,51.20
2018-07-01T16:34:25.993Z,52.20
2018-07-01T16:36:55.498Z,51.60
2018-07-01T16:39:24.334Z,53.50
2018-07-01T16:41:53.004Z,53.80
2018-07-01T16:44:22.281Z,54.40
2018-07-01T16:46:50.848Z,54.10
2018-07-01T16:49:19.749Z,53.70
2018-07-01T16:51:48.223Z,54.10
2018-07-01T16:54:16.842Z,54.80
2018-07-01T16:56:45.679Z,54.90
2018-07-01T16:59:15.397Z,54.10
2018-07-01T17:01:44.245Z,54.50
2018-07-01T17:04:13.136Z,54.00
2018-07-01T17:06:42.455Z,52.00
2018-07-01T17:09:11.996Z,52.50
2018-07-01T17:11:41.014Z,53.40
2018-07-01T17:14:09.664Z,54.00
2018-07-01T17:16:39.945Z,53.80
2018-07-01T17:19:08.579Z,55.20
2018-07-01T17:21:37.061Z,57.30
2018-07-01T17:24:05.692Z,58.50
2018-07-01T17:26:34.261Z,58.10
2018-07-01T17:29:02.778Z,58.90
2018-07-01T17:31:36.970Z,59.90
2018-07-01T17:34:05.844Z,60.10
2018-07-01T17:36:34.363Z,59.80
2018-07-01T17:39:03.140Z,60.30
2018-07-01T17:41:31.747Z,60.30
2018-07-01T17:44:00.303Z,60.20
2018-07-01T17:46:28.827Z,60.30
2018-07-01T17:48:57.389Z,61.10
2018-07-01T17:51:25.964Z,61.10
2018-07-01T17:53:56.624Z,61.30
2018-07-01T17:56:25.751Z,60.90
2018-07-01T17:58:55.322Z,61.50
2018-07-01T18:01:26.193Z,61.90
2018-07-01T18:03:54.699Z,61.80
2018-07-01T18:06:23.301Z,62.10
2018-07-01T18:08:52.028Z,61.60
2018-07-01T18:11:20.565Z,61.60
2018-07-01T18:13:49.183Z,61.90
2018-07-01T18:16:18.149Z,61.70
2018-07-01T18:18:46.619Z,61.10
2018-07-01T18:21:20.254Z,60.60
2018-07-01T18:24:19.492Z,60.90
2018-07-01T18:26:17.069Z,61.40
2018-07-01T18:28:55.768Z,61.10
2018-07-01T18:33:42.872Z,61.60
2018-07-01T18:36:12.396Z,61.40
2018-07-01T18:38:40.984Z,61.60
2018-07-01T18:41:09.663Z,61.20
2018-07-01T18:43:38.341Z,61.00
2018-07-01T18:46:07.434Z,60.80
2018-07-01T18:48:36.072Z,61.20
2018-07-01T18:51:04.848Z,61.20
2018-07-01T18:53:35.455Z,61.50
2018-07-01T18:56:04.045Z,61.40
2018-07-01T18:58:32.578Z,61.30
2018-07-01T19:01:01.412Z,61.50
2018-07-01T19:03:30.311Z,62.00
2018-07-01T19:05:59.411Z,61.50
2018-07-01T19:08:27.981Z,60.70
2018-07-01T19:10:56.543Z,60.60
2018-07-01T19:13:25.089Z,60.50
2018-07-01T19:15:53.633Z,60.40
2018-07-01T19:18:22.246Z,60.10
2018-07-01T19:20:51.143Z,60.20
2018-07-01T19:23:19.634Z,61.50
2018-07-01T19:25:48.167Z,62.20
2018-07-01T19:28:16.886Z,61.40
2018-07-01T19:30:45.394Z,60.70
2018-07-01T19:33:13.993Z,61.00
2018-07-01T19:35:42.576Z,63.30
2018-07-01T19:38:11.249Z,61.80
2018-07-01T19:40:40.221Z,61.70
2018-07-01T19:43:08.845Z,63.00
2018-07-01T19:45:37.380Z,62.10
2018-07-01T19:48:06.261Z,62.10
2018-07-01T19:50:34.780Z,61.70
2018-07-01T19:53:03.415Z,62.90
2018-07-01T19:55:31.999Z,62.70
2018-07-01T19:58:00.531Z,63.00
2018-07-01T20:00:29.261Z,63.80
2018-07-01T20:02:58.523Z,64.40
2018-07-01T20:05:27.174Z,65.30
2018-07-01T20:07:55.703Z,66.30
2018-07-01T20:10:24.338Z,67.20
2018-07-01T20:12:52.969Z,67.50
2018-07-01T20:15:22.499Z,69.50
2018-07-01T20:17:51.017Z,69.80
2018-07-01T20:20:19.609Z,70.20
2018-07-01T20:22:48.301Z,70.70
2018-07-01T20:25:16.858Z,71.60
2018-07-01T20:27:45.659Z,72.20
2018-07-01T20:30:14.172Z,72.80
2018-07-01T20:32:42.815Z,74.00
2018-07-01T20:35:11.421Z,74.20
2018-07-01T20:37:40.004Z,75.30
2018-07-01T20:42:42.413Z,77.60
2018-07-01T20:45:10.985Z,78.20
2018-07-01T20:47:39.549Z,78.60
2018-07-01T20:50:08.090Z,79.30
2018-07-01T20:52:36.623Z,80.20
2018-07-01T20:55:05.530Z,81.10
2018-07-01T20:57:34.079Z,82.40
2018-07-01T21:00:02.660Z,83.50
2018-07-01T21:02:31.213Z,84.60
2018-07-01T21:05:00.005Z,86.00
2018-07-01T21:07:28.493Z,86.50
2018-07-01T21:09:57.038Z,88.70
2018-07-01T21:12:25.585Z,89.80
2018-07-01T21:14:54.157Z,90.70
2018-07-01T21:17:23.121Z,91.70
2018-07-01T21:19:52.483Z,92.70
2018-07-01T21:22:21.031Z,93.40
2018-07-01T21:24:49.533Z,94.50
2018-07-01T21:27:18.618Z,95.90
2018-07-01T21:29:47.235Z,96.50
2018-07-01T21:32:15.790Z,98.00
2018-07-01T21:34:44.594Z,99.10
2018-07-01T21:37:13.102Z,99.70
2018-07-01T21:39:41.612Z,99.90
2018-07-01T21:42:10.184Z,99.90
2018-07-01T21:44:38.703Z,99.90
2018-07-01T21:47:07.863Z,99.90
2018-07-01T21:49:36.532Z,99.90
2018-07-01T21:52:05.167Z,99.90
2018-07-01T21:54:33.780Z,99.90
2018-07-01T21:57:02.248Z,99.90
2018-07-01T21:59:30.798Z,99.90
2018-07-01T22:01:59.467Z,99.90
2018-07-01T22:04:28.100Z,99.90
2018-07-01T22:07:00.634Z,99.90
2018-07-01T22:09:30.269Z,99.90
2018-07-01T22:12:10.395Z,99.90
2018-07-01T22:14:50.203Z,99.90
2018-07-01T22:17:18.792Z,99.90
2018-07-01T22:19:47.334Z,99.90
2018-07-01T22:22:15.872Z,99.90
2018-07-01T22:24:44.443Z,99.90
2018-07-01T22:27:12.984Z,99.90
2018-07-01T22:29:41.598Z,99.90
2018-07-01T22:32:10.176Z,99.90
2018-07-01T22:34:38.708Z,99.90
2018-07-01T22:37:07.260Z,99.90
2018-07-01T22:39:36.044Z,99.90
2018-07-01T22:42:04.594Z,99.90
2018-07-01T22:44:33.232Z,99.90
2018-07-01T22:47:01.801Z,99.90
2018-07-01T22:49:30.362Z,99.90
2018-07-01T22:51:58.884Z,99.90
2018-07-01T22:54:27.480Z,99.90
2018-07-01T22:56:56.123Z,99.90
2018-07-01T22:59:24.641Z,99.90
2018-07-01T23:03:07.202Z,99.90
2018-07-01T23:05:35.741Z,99.90
2018-07-01T23:08:04.482Z,99.90
2018-07-01T23:10:34.026Z,99.90
2018-07-01T23:13:03.387Z,99.90
2018-07-01T23:15:32.531Z,99.90
2018-07-01T23:18:01.244Z,99.90
2018-07-01T23:20:29.854Z,99.90
2018-07-01T23:22:58.395Z,99.90
2018-07-01T23:25:27.806Z,99.90
2018-07-01T23:30:24.637Z,99.90
2018-07-01T23:32:53.244Z,99.90
2018-07-01T23:35:22.166Z,99.90
2018-07-01T23:37:50.739Z,99.90
2018-07-01T23:40:19.346Z,99.90
2018-07-01T23:42:47.891Z,99.90
2018-07-01T23:45:16.895Z,99.90
2018-07-01T23:47:45.507Z,99.90
2018-07-01T23:50:14.101Z,99.90
2018-07-01T23:52:42.673Z,99.90
2018-07-01T23:55:12.783Z,99.90
2018-07-01T23:57:41.673Z,99.90
